Airfield :
LOGIN :

Register | Disclaimer

   EN    FR    IT 

 










Legend :    VFR   Marginal VFR   IFR   Intensive IFR   Very Intensive IFR
Visi :
Ceiling :
>= 8 km
>= 3000ft
5 to 8 km
1000 to 3000 ft
1500m to 5 km
500 to 1000 ft
800 to 1500m
200 to 500 ft
< 800m
< 200 ft
Symbols :   Thunderstorms  Fog  Heavy snow  Heavy precipitations  Wind > 20 kt
SIGMETs :     Misc.  Thunderstorms  Icing  Turbulence  Mountain Waves  Volcanic Ashes







- Airport Elevation : 412 ft
- IATA code : ORE
- Download approach charts


LFOJ - Orleans

CURRENT METAR :
  • 241730Z AUTO 07011KT 9999 OVC021 11/08 Q1023

EXPIRED METARs :
  • 241700Z AUTO 08014KT 9999 FEW018 OVC025 12/08 Q1022 NOSIG
  • 241630Z AUTO 07014KT 9999 SCT020 OVC028 12/09 Q1022 NOSIG
  • 241600Z AUTO 06013KT 9999 OVC026 13/09 Q1022 NOSIG
  • 241530Z AUTO 06014KT 9999 BKN023 OVC110 13/09 Q1022 NOSIG
  • 241500Z AUTO 06012KT 9999 BKN024 OVC056 13/09 Q1022 NOSIG

TAF TAF LFOJ
Valid from the 24 at 15:00 until the 25 at 15:00 UTC


241400Z 2415/2515 06012KT 9999 BKN020
PROB40
TEMPO 2503/2507 4000 BR BKN009
BECMG 2507/2509 06016G26KT
No reported NOTAMs for that airfield.



MET'MAP, your aeronautical weather chart ! - Copyright ORBIFLY December 2007 - Disclaimer

ORBIFLY MET'MAP TEAM :

Programming & Development : Alexandra Zaïnal
Concept & Development : Baudouin d'Aumeries
Co-Development & Prog : Marc-Olivier Méhu
Technical & hardware support : Manuel Goepfert

Contact : metmap@orbifly.com




SOURCES & CREDITS :

   NOAA